Orbital elements of KIKU-5
| Launched | 26 August 1987 |
| Flight ended | – |
| Launch site | Tanegashima Space Center, Japan |
| Owner | Japan |
| NORAD ID | 18316 |
| Alternative names |
ETS-V |
| Date fetched |
Epoch osculation |
Inc. [°] |
Ecc. | RA asc node [hr] |
Arg Peri. [°] |
Mean anom [°] |
Mean motion [rev/day] |
Abs. mag |
| Date fetched |
Epoch osculation |
Inc. [°] |
Ecc. | RA asc node [hr] |
Arg Peri. [°] |
Mean anom [°] |
Mean motion [rev/day] |
Abs. mag |
| 2026 May 08 17:57 | 2026 May 05 03:14:12 | 12.8315 | 0.00069 | 22.3736 | 54.3655 | 309.2948 | 0.99330 | – |
| 2026 May 07 17:58 | 2026 May 05 03:14:12 | 12.8315 | 0.00069 | 22.3736 | 54.3655 | 309.2948 | 0.99330 | – |
| 2026 May 06 17:57 | 2026 May 05 03:14:12 | 12.8315 | 0.00069 | 22.3736 | 54.3655 | 309.2948 | 0.99330 | – |
| 2026 May 05 17:57 | 2026 May 05 03:14:12 | 12.8315 | 0.00069 | 22.3736 | 54.3655 | 309.2948 | 0.99330 | – |
| 2026 May 04 17:57 | 2026 Apr 30 01:49:15 | 12.8365 | 0.00070 | 22.3760 | 50.9513 | 309.2948 | 0.99330 | – |
| 2026 May 03 17:57 | 2026 Apr 30 01:49:15 | 12.8365 | 0.00070 | 22.3760 | 50.9513 | 309.2948 | 0.99330 | – |
| 2026 May 02 17:57 | 2026 Apr 30 01:49:15 | 12.8365 | 0.00070 | 22.3760 | 50.9513 | 309.2948 | 0.99330 | – |
| 2026 May 01 17:56 | 2026 Apr 30 01:49:15 | 12.8365 | 0.00070 | 22.3760 | 50.9513 | 309.2948 | 0.99330 | – |
| 2026 Apr 30 17:56 | 2026 Apr 30 01:49:15 | 12.8365 | 0.00070 | 22.3760 | 50.9513 | 309.2948 | 0.99330 | – |
| 2026 Apr 29 17:57 | 2026 Apr 24 12:26:14 | 12.8422 | 0.00069 | 22.3784 | 47.7013 | 309.2948 | 0.99330 | – |
| 2026 Apr 28 17:56 | 2026 Apr 24 12:26:14 | 12.8422 | 0.00069 | 22.3784 | 47.7013 | 309.2948 | 0.99330 | – |
| 2026 Apr 27 17:58 | 2026 Apr 24 12:26:14 | 12.8422 | 0.00069 | 22.3784 | 47.7013 | 309.2948 | 0.99330 | – |
| 2026 Apr 26 17:58 | 2026 Apr 24 12:26:14 | 12.8422 | 0.00069 | 22.3784 | 47.7013 | 309.2948 | 0.99330 | – |
| 2026 Apr 25 17:58 | 2026 Apr 24 12:26:14 | 12.8422 | 0.00069 | 22.3784 | 47.7013 | 309.2948 | 0.99330 | – |
| 2026 Apr 24 17:59 | 2026 Apr 24 12:26:14 | 12.8422 | 0.00069 | 22.3784 | 47.7013 | 309.2948 | 0.99330 | – |
| 2026 Apr 23 17:57 | 2026 Apr 18 12:47:14 | 12.8485 | 0.00068 | 22.3810 | 45.7795 | 309.2948 | 0.99330 | – |
| 2026 Apr 22 17:57 | 2026 Apr 18 12:47:14 | 12.8485 | 0.00068 | 22.3810 | 45.7795 | 309.2948 | 0.99330 | – |
| 2026 Apr 21 17:57 | 2026 Apr 18 12:47:14 | 12.8485 | 0.00068 | 22.3810 | 45.7795 | 309.2948 | 0.99330 | – |
| 2026 Apr 20 17:57 | 2026 Apr 18 12:47:14 | 12.8485 | 0.00068 | 22.3810 | 45.7795 | 309.2948 | 0.99330 | – |
| 2026 Apr 19 17:58 | 2026 Apr 18 12:47:14 | 12.8485 | 0.00068 | 22.3810 | 45.7795 | 309.2948 | 0.99330 | – |
| 2026 Apr 18 17:56 | 2026 Apr 12 23:23:57 | 12.8543 | 0.00068 | 22.3835 | 44.4462 | 309.2948 | 0.99330 | – |
| 2026 Apr 16 17:57 | 2026 Apr 12 23:23:57 | 12.8543 | 0.00068 | 22.3835 | 44.4462 | 309.2948 | 0.99330 | – |
| 2026 Apr 14 17:57 | 2026 Apr 12 23:23:57 | 12.8543 | 0.00068 | 22.3835 | 44.4462 | 309.2948 | 0.99330 | – |
| 2026 Apr 13 17:57 | 2026 Apr 12 23:23:57 | 12.8543 | 0.00068 | 22.3835 | 44.4462 | 309.2948 | 0.99330 | – |
| 2026 Apr 12 17:57 | 2026 Apr 08 11:39:38 | 12.8586 | 0.00069 | 22.3855 | 42.5834 | 309.2948 | 0.99330 | – |
| 2026 Apr 11 17:57 | 2026 Apr 08 11:39:38 | 12.8586 | 0.00069 | 22.3855 | 42.5834 | 309.2948 | 0.99330 | – |